createdAt,value
2023-03-12T00:00:30.538Z,5.57
2023-03-12T00:02:58.715Z,5.50
2023-03-12T00:05:26.831Z,5.77
2023-03-12T00:07:59.667Z,5.37
2023-03-12T00:10:27.895Z,5.10
2023-03-12T00:12:56.061Z,4.70
2023-03-12T00:15:24.347Z,4.93
2023-03-12T00:17:52.495Z,4.80
2023-03-12T00:20:22.004Z,4.40
2023-03-12T00:22:50.013Z,4.77
2023-03-12T00:25:21.044Z,4.73
2023-03-12T00:27:48.951Z,4.83
2023-03-12T00:30:17.328Z,5.10
2023-03-12T00:32:45.424Z,6.03
2023-03-12T00:35:13.748Z,5.70
2023-03-12T00:37:41.863Z,5.10
2023-03-12T00:40:11.406Z,5.87
2023-03-12T00:42:41.304Z,5.50
2023-03-12T00:45:09.796Z,5.63
2023-03-12T00:47:37.866Z,5.23
2023-03-12T00:50:06.645Z,5.47
2023-03-12T00:52:34.531Z,5.67
2023-03-12T00:55:02.522Z,4.60
2023-03-12T00:57:30.492Z,5.10
2023-03-12T00:59:59.809Z,5.10
2023-03-12T01:02:27.830Z,4.60
2023-03-12T01:04:55.804Z,4.70
2023-03-12T01:07:23.785Z,4.13
2023-03-12T01:09:51.716Z,4.03
2023-03-12T01:12:19.762Z,4.57
2023-03-12T01:14:47.818Z,4.27
2023-03-12T01:17:17.238Z,4.93
2023-03-12T01:19:45.403Z,4.30
2023-03-12T01:22:13.376Z,4.17
2023-03-12T01:24:41.400Z,3.87
2023-03-12T01:27:09.409Z,4.50
2023-03-12T01:29:37.411Z,4.23
2023-03-12T01:32:05.816Z,4.30
2023-03-12T01:34:36.422Z,4.60
2023-03-12T01:37:04.425Z,4.53
2023-03-12T01:39:32.413Z,3.83
2023-03-12T01:42:00.995Z,3.73
2023-03-12T01:44:29.239Z,4.03
2023-03-12T01:46:57.207Z,4.07
2023-03-12T01:49:27.815Z,3.93
2023-03-12T01:52:00.035Z,3.80
2023-03-12T01:54:32.130Z,3.70
2023-03-12T01:57:01.947Z,3.73
2023-03-12T01:59:32.450Z,4.10
2023-03-12T02:02:00.850Z,3.47
2023-03-12T02:04:30.066Z,3.60
2023-03-12T02:07:04.468Z,3.57
2023-03-12T02:09:34.112Z,3.43
2023-03-12T02:12:02.256Z,3.23
2023-03-12T02:14:30.656Z,3.43
2023-03-12T02:16:58.930Z,3.53
2023-03-12T02:19:33.877Z,3.30
2023-03-12T02:22:03.192Z,3.53
2023-03-12T02:24:35.687Z,3.23
2023-03-12T02:27:06.107Z,3.63
2023-03-12T02:29:34.717Z,3.60
2023-03-12T02:32:04.222Z,4.03
2023-03-12T02:34:32.344Z,3.30
2023-03-12T02:37:00.339Z,3.40
2023-03-12T02:39:28.743Z,3.83
2023-03-12T02:41:58.704Z,3.70
2023-03-12T02:44:29.526Z,3.10
2023-03-12T02:46:59.261Z,3.00
2023-03-12T02:49:29.855Z,2.97
2023-03-12T02:51:58.139Z,2.87
2023-03-12T02:54:26.775Z,2.60
2023-03-12T02:56:55.048Z,2.90
2023-03-12T02:59:26.046Z,3.10
2023-03-12T03:01:58.897Z,2.83
2023-03-12T03:04:29.381Z,3.07
2023-03-12T03:06:57.941Z,3.00
2023-03-12T03:09:26.004Z,2.90
2023-03-12T03:11:54.078Z,3.27
2023-03-12T03:14:23.920Z,3.07
2023-03-12T03:16:53.261Z,3.03
2023-03-12T03:19:25.287Z,3.10
2023-03-12T03:21:53.319Z,2.90
2023-03-12T03:24:21.614Z,3.30
2023-03-12T03:26:49.608Z,3.77
2023-03-12T03:29:17.890Z,3.03
2023-03-12T03:31:45.846Z,3.30
2023-03-12T03:34:13.946Z,3.23
2023-03-12T03:36:43.458Z,2.83
2023-03-12T03:39:15.049Z,3.37
2023-03-12T03:41:43.163Z,2.57
2023-03-12T03:44:11.732Z,3.40
2023-03-12T03:46:40.765Z,3.17
2023-03-12T03:49:11.533Z,2.60
2023-03-12T03:51:43.052Z,2.87
2023-03-12T03:54:14.236Z,3.17
2023-03-12T03:56:43.637Z,2.50
2023-03-12T03:59:12.261Z,3.07
2023-03-12T04:01:41.782Z,2.70
2023-03-12T04:04:09.723Z,2.87
2023-03-12T04:06:37.804Z,2.60
2023-03-12T04:09:07.539Z,2.67
2023-03-12T04:11:37.096Z,2.53
2023-03-12T04:14:06.783Z,2.80
2023-03-12T04:16:36.366Z,2.53
2023-03-12T04:19:05.135Z,2.73
2023-03-12T04:21:33.242Z,2.60
2023-03-12T04:24:01.188Z,2.60
2023-03-12T04:26:34.855Z,2.70
2023-03-12T04:29:03.960Z,2.70
2023-03-12T04:31:32.502Z,3.20
2023-03-12T04:34:00.542Z,2.80
2023-03-12T04:36:28.838Z,2.73
2023-03-12T04:38:57.276Z,3.13
2023-03-12T04:41:30.007Z,2.80
2023-03-12T04:44:09.821Z,2.93
2023-03-12T04:46:38.983Z,3.10
2023-03-12T04:49:07.080Z,3.10
2023-03-12T04:51:37.498Z,2.83
2023-03-12T04:54:06.560Z,2.70
2023-03-12T04:56:35.553Z,2.97
2023-03-12T04:59:08.196Z,3.17
2023-03-12T05:01:37.857Z,3.40
2023-03-12T05:04:11.413Z,2.93
2023-03-12T05:06:39.496Z,3.10
2023-03-12T05:09:07.409Z,3.00
2023-03-12T05:11:47.077Z,3.43
2023-03-12T05:14:20.131Z,2.73
2023-03-12T05:16:49.262Z,3.33
2023-03-12T05:19:17.471Z,3.10
2023-03-12T05:21:45.617Z,3.40
2023-03-12T05:24:14.057Z,3.30
2023-03-12T05:26:42.057Z,2.97
2023-03-12T05:29:20.276Z,3.77
2023-03-12T05:31:48.317Z,3.00
2023-03-12T05:34:16.514Z,3.50
2023-03-12T05:36:46.352Z,3.33
2023-03-12T05:39:18.218Z,3.77
2023-03-12T05:41:46.511Z,3.73
2023-03-12T05:44:20.138Z,3.53
2023-03-12T05:46:52.468Z,3.37
2023-03-12T05:49:21.170Z,4.00
2023-03-12T05:51:49.838Z,4.00
2023-03-12T05:54:19.831Z,3.57
2023-03-12T05:56:50.614Z,3.97
2023-03-12T05:59:20.694Z,4.40
2023-03-12T06:01:49.394Z,3.90
2023-03-12T06:04:18.036Z,3.83
2023-03-12T06:06:46.725Z,3.40
2023-03-12T06:09:15.050Z,3.57
2023-03-12T06:11:43.326Z,4.10
2023-03-12T06:14:11.477Z,3.60
2023-03-12T06:16:40.912Z,3.67
2023-03-12T06:19:13.941Z,3.47
2023-03-12T06:21:44.307Z,4.07
2023-03-12T06:24:13.018Z,3.47
2023-03-12T06:26:46.953Z,3.30
2023-03-12T06:29:18.454Z,3.80
2023-03-12T06:31:48.378Z,3.27
2023-03-12T06:34:17.026Z,3.30
2023-03-12T06:36:58.002Z,3.70
2023-03-12T06:39:29.969Z,3.20
2023-03-12T06:41:58.004Z,3.20
2023-03-12T06:44:26.074Z,3.10
2023-03-12T06:46:56.275Z,3.20
2023-03-12T06:49:24.282Z,3.10
2023-03-12T06:51:52.399Z,3.93
2023-03-12T06:54:20.354Z,3.20
2023-03-12T06:56:48.314Z,3.23
2023-03-12T06:59:16.238Z,3.10
2023-03-12T07:01:44.232Z,3.00
2023-03-12T07:04:14.149Z,3.43
2023-03-12T07:06:42.221Z,3.53
2023-03-12T07:09:10.327Z,3.30
2023-03-12T07:11:38.462Z,3.23
2023-03-12T07:14:06.388Z,3.53
2023-03-12T07:16:34.958Z,3.17
2023-03-12T07:19:03.851Z,3.57
2023-03-12T07:21:33.253Z,3.03
2023-03-12T07:24:06.707Z,3.20
2023-03-12T07:26:35.330Z,3.40
2023-03-12T07:29:03.345Z,3.07
2023-03-12T07:31:31.340Z,3.50
2023-03-12T07:33:59.474Z,2.90
2023-03-12T07:36:27.706Z,3.67
2023-03-12T07:38:57.151Z,3.10
2023-03-12T07:41:25.384Z,3.50
2023-03-12T07:43:53.373Z,3.17
2023-03-12T07:46:21.390Z,2.97
2023-03-12T07:48:49.379Z,2.90
2023-03-12T07:51:17.384Z,3.70
2023-03-12T07:53:45.593Z,3.20
2023-03-12T07:56:15.223Z,3.43
2023-03-12T07:58:43.567Z,4.03
2023-03-12T08:01:11.632Z,3.50
2023-03-12T08:03:39.941Z,3.03
2023-03-12T08:06:08.145Z,3.20
2023-03-12T08:08:50.125Z,3.97
2023-03-12T08:11:19.512Z,3.30
2023-03-12T08:13:47.546Z,3.63
2023-03-12T08:16:15.844Z,3.23
2023-03-12T08:18:44.424Z,3.97
2023-03-12T08:21:16.331Z,3.20
2023-03-12T08:23:44.616Z,3.23
2023-03-12T08:26:13.036Z,3.43
2023-03-12T08:28:42.458Z,3.33
2023-03-12T08:31:10.504Z,3.43
2023-03-12T08:33:41.220Z,3.20
2023-03-12T08:36:09.819Z,3.20
2023-03-12T08:38:37.778Z,3.37
2023-03-12T08:41:06.042Z,3.57
2023-03-12T08:43:34.130Z,3.90
2023-03-12T08:46:04.107Z,3.37
2023-03-12T08:48:33.025Z,3.40
2023-03-12T08:51:04.136Z,3.50
2023-03-12T08:53:33.282Z,3.50
2023-03-12T08:56:01.293Z,3.70
2023-03-12T08:58:29.637Z,3.90
2023-03-12T09:00:58.264Z,3.60
2023-03-12T09:03:27.923Z,3.50
2023-03-12T09:06:07.197Z,4.07
2023-03-12T09:08:35.298Z,4.00
2023-03-12T09:11:03.950Z,3.63
2023-03-12T09:13:54.283Z,3.97
2023-03-12T09:16:20.013Z,3.60
2023-03-12T09:18:49.516Z,4.23
2023-03-12T09:21:17.677Z,4.17
2023-03-12T09:23:45.700Z,4.80
2023-03-12T09:26:14.175Z,4.40
2023-03-12T09:28:42.595Z,4.70
2023-03-12T09:31:10.658Z,4.70
2023-03-12T09:33:38.888Z,4.70
2023-03-12T09:36:08.637Z,4.63
2023-03-12T09:38:37.983Z,5.00
2023-03-12T09:41:06.770Z,4.60
2023-03-12T09:43:38.470Z,4.53
2023-03-12T09:46:12.153Z,4.50
2023-03-12T09:48:40.442Z,4.80
2023-03-12T09:51:15.988Z,5.70
2023-03-12T09:53:47.119Z,5.13
2023-03-12T09:56:17.081Z,5.40
2023-03-12T09:58:48.090Z,5.50
2023-03-12T10:01:31.631Z,5.17
2023-03-12T10:04:07.417Z,5.17
2023-03-12T10:06:40.355Z,5.43
2023-03-12T10:09:22.560Z,5.43
2023-03-12T10:11:56.960Z,5.33
2023-03-12T10:14:37.450Z,5.57
2023-03-12T10:17:16.466Z,5.03
2023-03-12T10:20:02.417Z,6.17
2023-03-12T10:22:45.002Z,5.50
2023-03-12T10:25:17.921Z,6.30
2023-03-12T10:27:46.025Z,5.80
2023-03-12T10:30:18.106Z,5.93
2023-03-12T10:32:49.750Z,5.93
2023-03-12T10:35:21.743Z,6.20
2023-03-12T10:37:53.217Z,5.80
2023-03-12T10:40:24.421Z,6.57
2023-03-12T10:42:52.564Z,6.33
2023-03-12T10:45:30.741Z,6.07
2023-03-12T10:48:00.460Z,6.07
2023-03-12T10:50:30.152Z,6.73
2023-03-12T10:56:03.481Z,5.40
2023-03-12T10:58:36.872Z,5.80
2023-03-12T11:01:07.063Z,4.10
2023-03-12T11:03:35.140Z,3.10
2023-03-12T11:06:04.484Z,1.27
2023-03-12T11:08:34.060Z,1.33
2023-03-12T11:11:05.208Z,1.00
2023-03-12T11:13:34.975Z,0.90
2023-03-12T11:16:04.200Z,1.00
2023-03-12T11:18:34.417Z,1.10
2023-03-12T11:21:21.125Z,1.20
2023-03-12T11:24:07.370Z,1.10
2023-03-12T11:26:40.956Z,1.10
2023-03-12T11:29:19.882Z,1.47
2023-03-12T11:31:53.210Z,1.47
2023-03-12T11:34:24.954Z,1.30
2023-03-12T11:36:57.415Z,1.50
2023-03-12T11:39:31.547Z,1.50
2023-03-12T11:42:08.194Z,1.57
2023-03-12T11:44:41.625Z,1.90
2023-03-12T11:47:21.509Z,2.00
2023-03-12T11:50:00.386Z,1.50
2023-03-12T11:52:36.393Z,1.90
2023-03-12T11:55:16.663Z,1.80
2023-03-12T11:57:53.429Z,2.30
2023-03-12T12:00:26.113Z,1.80
2023-03-12T12:03:19.875Z,2.30
2023-03-12T12:05:57.828Z,1.77
2023-03-12T12:08:48.993Z,2.07
2023-03-12T12:11:21.694Z,1.80
2023-03-12T12:14:02.096Z,1.63
2023-03-12T12:16:46.612Z,1.50
2023-03-12T12:19:23.260Z,1.70
2023-03-12T12:22:05.075Z,1.27
2023-03-12T12:24:43.758Z,1.50
2023-03-12T12:27:18.529Z,1.70
2023-03-12T12:30:01.752Z,0.90
2023-03-12T12:32:36.586Z,1.37
2023-03-12T12:35:14.174Z,1.10
2023-03-12T12:37:47.331Z,0.73
2023-03-12T12:40:22.958Z,1.30
2023-03-12T12:42:56.411Z,1.47
2023-03-12T12:45:26.124Z,1.27
2023-03-12T12:47:58.385Z,1.37
2023-03-12T12:50:30.905Z,1.60
2023-03-12T12:53:07.414Z,1.37
2023-03-12T12:55:38.562Z,1.30
2023-03-12T12:58:11.661Z,1.30
2023-03-12T13:00:51.620Z,1.27
2023-03-12T13:03:21.645Z,1.50
2023-03-12T13:05:56.838Z,1.77
2023-03-12T13:08:37.696Z,1.27
2023-03-12T13:11:18.381Z,2.30
2023-03-12T13:13:50.934Z,1.80
2023-03-12T13:16:29.901Z,1.60
2023-03-12T13:18:59.024Z,1.50
2023-03-12T13:21:32.602Z,1.63
2023-03-12T13:24:10.801Z,1.80
2023-03-12T13:26:50.616Z,2.57
2023-03-12T13:29:24.863Z,2.00
2023-03-12T13:31:54.416Z,1.80
2023-03-12T13:34:52.768Z,2.03
2023-03-12T13:37:29.435Z,1.90
2023-03-12T13:40:08.260Z,2.20
2023-03-12T13:42:39.545Z,2.43
2023-03-12T13:45:25.698Z,2.17
2023-03-12T13:47:59.334Z,2.20
2023-03-12T13:50:27.738Z,2.37
2023-03-12T13:53:03.487Z,2.17
2023-03-12T13:55:32.379Z,2.77
2023-03-12T13:58:06.534Z,2.20
2023-03-12T14:00:39.697Z,2.80
2023-03-12T14:03:13.915Z,2.20
2023-03-12T14:05:49.187Z,2.37
2023-03-12T14:08:41.069Z,2.50
2023-03-12T14:11:35.916Z,4.03
2023-03-12T14:14:24.163Z,3.20
2023-03-12T14:16:53.153Z,3.33
2023-03-12T14:19:25.617Z,3.17
2023-03-12T14:21:54.422Z,2.10
2023-03-12T14:24:26.614Z,3.17
2023-03-12T14:26:55.499Z,3.20
2023-03-12T14:29:27.487Z,2.20
2023-03-12T14:31:57.995Z,2.90
2023-03-12T14:34:28.967Z,2.27
2023-03-12T14:36:59.823Z,3.63
2023-03-12T14:39:31.709Z,2.30
2023-03-12T14:42:01.901Z,2.30
2023-03-12T14:44:31.472Z,2.60
2023-03-12T14:47:01.367Z,2.47
2023-03-12T14:49:31.942Z,2.40
2023-03-12T14:51:59.837Z,2.87
2023-03-12T14:54:29.493Z,2.23
2023-03-12T14:56:57.665Z,2.50
2023-03-12T14:59:29.273Z,2.53
2023-03-12T15:02:01.608Z,2.43
2023-03-12T15:04:31.815Z,2.53
2023-03-12T15:07:04.488Z,2.77
2023-03-12T15:09:35.324Z,2.50
2023-03-12T15:12:08.089Z,2.70
2023-03-12T15:14:40.231Z,2.70
2023-03-12T15:17:10.690Z,2.40
2023-03-12T15:19:40.884Z,2.80
2023-03-12T15:22:11.203Z,3.00
2023-03-12T15:24:40.903Z,2.73
2023-03-12T15:27:23.321Z,3.53
2023-03-12T15:29:51.590Z,2.30
2023-03-12T15:32:25.489Z,3.17
2023-03-12T15:34:59.075Z,3.63
2023-03-12T15:37:32.688Z,3.60
2023-03-12T15:40:06.273Z,3.80
2023-03-12T15:42:39.690Z,3.87
2023-03-12T15:45:17.714Z,3.63
2023-03-12T15:47:46.371Z,3.33
2023-03-12T15:50:20.325Z,3.80
2023-03-12T15:53:00.184Z,3.97
2023-03-12T15:55:30.608Z,3.63
2023-03-12T15:57:59.846Z,4.00
2023-03-12T16:00:29.459Z,4.00
2023-03-12T16:02:59.487Z,4.57
2023-03-12T16:05:31.772Z,4.40
2023-03-12T16:08:02.244Z,4.20
2023-03-12T16:10:30.210Z,4.53
2023-03-12T16:13:02.646Z,4.97
2023-03-12T16:15:33.497Z,4.23
2023-03-12T16:18:01.680Z,5.37
2023-03-12T16:20:31.228Z,4.50
2023-03-12T16:22:59.263Z,4.10
2023-03-12T16:25:27.379Z,4.17
2023-03-12T16:27:57.976Z,4.80
2023-03-12T16:30:28.743Z,5.30
2023-03-12T16:32:57.168Z,4.97
2023-03-12T16:35:25.402Z,4.33
2023-03-12T16:37:54.854Z,5.47
2023-03-12T16:40:32.993Z,4.83
2023-03-12T16:43:03.477Z,4.33
2023-03-12T16:45:32.751Z,4.30
2023-03-12T16:48:02.541Z,4.43
2023-03-12T16:50:30.704Z,4.60
2023-03-12T16:53:00.151Z,4.80
2023-03-12T16:55:30.036Z,4.63
2023-03-12T16:58:00.725Z,4.50
2023-03-12T17:00:30.529Z,4.57
2023-03-12T17:02:59.599Z,5.03
2023-03-12T17:05:28.674Z,4.87
2023-03-12T17:07:57.043Z,5.17
2023-03-12T17:10:27.019Z,4.73
2023-03-12T17:12:56.806Z,4.30
2023-03-12T17:15:27.545Z,5.10
2023-03-12T17:17:56.816Z,4.13
2023-03-12T17:20:25.650Z,4.60
2023-03-12T17:22:53.828Z,4.40
2023-03-12T17:25:24.414Z,4.90
2023-03-12T17:27:56.393Z,4.90
2023-03-12T17:30:24.992Z,4.43
2023-03-12T17:32:53.282Z,4.63
2023-03-12T17:35:21.803Z,4.80
2023-03-12T17:37:50.971Z,4.50
2023-03-12T17:40:19.161Z,4.40
2023-03-12T17:42:47.149Z,4.73
2023-03-12T17:45:16.586Z,4.97
2023-03-12T17:47:44.605Z,4.70
2023-03-12T17:50:13.496Z,4.80
2023-03-12T17:52:41.577Z,5.27
2023-03-12T17:55:11.761Z,4.90
2023-03-12T17:57:40.696Z,5.73
2023-03-12T18:00:12.787Z,4.70
2023-03-12T18:02:43.112Z,4.10
2023-03-12T18:05:12.524Z,4.37
2023-03-12T18:07:40.978Z,4.53
2023-03-12T18:10:11.897Z,5.07
2023-03-12T18:12:40.422Z,5.37
2023-03-12T18:15:10.921Z,4.43
2023-03-12T18:17:38.997Z,5.17
2023-03-12T18:20:16.728Z,5.53
2023-03-12T18:22:47.950Z,5.17
2023-03-12T18:25:16.167Z,4.30
2023-03-12T18:27:44.240Z,5.03
2023-03-12T18:30:13.687Z,4.90
2023-03-12T18:32:42.549Z,5.27
2023-03-12T18:35:12.278Z,5.37
2023-03-12T18:37:43.421Z,4.50
2023-03-12T18:40:13.053Z,4.00
2023-03-12T18:42:44.394Z,4.47
2023-03-12T18:45:13.194Z,5.30
2023-03-12T18:47:42.074Z,5.00
2023-03-12T18:50:13.538Z,4.53
2023-03-12T18:52:41.606Z,4.93
2023-03-12T18:55:15.200Z,4.63
2023-03-12T18:57:43.968Z,5.67
2023-03-12T19:00:15.028Z,5.53
2023-03-12T19:02:43.449Z,4.83
2023-03-12T19:05:13.427Z,4.70
2023-03-12T19:07:42.369Z,4.33
2023-03-12T19:10:12.000Z,4.40
2023-03-12T19:12:51.320Z,4.90
2023-03-12T19:15:21.021Z,4.70
2023-03-12T19:17:49.561Z,4.87
2023-03-12T19:20:19.985Z,4.80
2023-03-12T19:22:51.265Z,5.13
2023-03-12T19:25:20.094Z,4.57
2023-03-12T19:27:49.222Z,4.73
2023-03-12T19:30:18.348Z,4.03
2023-03-12T19:32:46.733Z,4.87
2023-03-12T19:35:16.198Z,4.50
2023-03-12T19:37:45.903Z,4.67
2023-03-12T19:40:14.912Z,5.37
2023-03-12T19:42:43.373Z,5.67
2023-03-12T19:45:13.826Z,5.03
2023-03-12T19:47:42.241Z,4.60
2023-03-12T19:50:11.984Z,4.30
2023-03-12T19:52:40.240Z,4.30
2023-03-12T19:55:12.083Z,4.43
2023-03-12T19:57:40.929Z,4.83
2023-03-12T20:00:12.237Z,4.50
2023-03-12T20:02:41.410Z,4.07
2023-03-12T20:05:10.655Z,4.77
2023-03-12T20:07:38.995Z,4.17
2023-03-12T20:10:10.976Z,4.00
2023-03-12T20:12:39.792Z,5.40
2023-03-12T20:15:09.138Z,6.13
2023-03-12T20:17:37.230Z,4.77
2023-03-12T20:20:07.236Z,4.67
2023-03-12T20:22:36.453Z,5.03
2023-03-12T20:25:05.228Z,5.00
2023-03-12T20:27:35.282Z,4.83
2023-03-12T20:30:04.591Z,4.40
2023-03-12T20:32:35.260Z,5.27
2023-03-12T20:35:04.376Z,4.90
2023-03-12T20:37:32.735Z,4.53
2023-03-12T20:40:01.031Z,4.57
2023-03-12T20:42:29.328Z,5.53
2023-03-12T20:44:58.942Z,4.73
2023-03-12T20:47:27.432Z,4.20
2023-03-12T20:49:55.685Z,4.90
2023-03-12T20:52:24.142Z,4.30
2023-03-12T20:54:52.541Z,4.83
2023-03-12T20:57:22.030Z,4.60
2023-03-12T20:59:50.846Z,4.73
2023-03-12T21:02:20.542Z,5.83
2023-03-12T21:04:49.464Z,4.37
2023-03-12T21:07:17.782Z,4.63
2023-03-12T21:09:46.029Z,4.70
2023-03-12T21:12:14.742Z,5.23
2023-03-12T21:14:43.279Z,4.50
2023-03-12T21:17:13.716Z,4.13
2023-03-12T21:19:43.954Z,4.50
2023-03-12T21:22:12.612Z,4.77
2023-03-12T21:24:40.839Z,4.80
2023-03-12T21:27:11.402Z,4.20
2023-03-12T21:29:39.924Z,4.40
2023-03-12T21:32:08.330Z,4.17
2023-03-12T21:34:38.289Z,4.87
2023-03-12T21:37:08.205Z,4.00
2023-03-12T21:39:39.390Z,4.57
2023-03-12T21:42:08.480Z,4.63
2023-03-12T21:44:37.431Z,4.50
2023-03-12T21:47:06.587Z,4.37
2023-03-12T21:49:35.891Z,5.30
2023-03-12T21:52:04.976Z,4.63
2023-03-12T21:54:39.293Z,4.20
2023-03-12T21:57:07.910Z,4.37
2023-03-12T21:59:36.431Z,4.60
2023-03-12T22:02:05.130Z,4.60
2023-03-12T22:04:33.591Z,3.87
2023-03-12T22:07:02.453Z,4.60
2023-03-12T22:09:31.262Z,4.30
2023-03-12T22:12:01.547Z,5.30
2023-03-12T22:14:30.470Z,4.13
2023-03-12T22:16:58.956Z,3.73
2023-03-12T22:19:27.633Z,3.63
2023-03-12T22:21:56.300Z,4.00
2023-03-12T22:24:26.855Z,3.60
2023-03-12T22:26:55.408Z,4.03
2023-03-12T22:29:25.506Z,3.77
2023-03-12T22:31:53.868Z,4.00
2023-03-12T22:34:22.416Z,3.70
2023-03-12T22:36:51.003Z,3.80
2023-03-12T22:39:19.566Z,4.60
2023-03-12T22:41:51.873Z,3.53
2023-03-12T22:44:20.167Z,4.00
2023-03-12T22:46:52.534Z,3.80
2023-03-12T22:49:20.764Z,3.40
2023-03-12T22:51:49.039Z,3.80
2023-03-12T22:54:17.424Z,4.10
2023-03-12T22:56:45.685Z,3.90
2023-03-12T22:59:13.871Z,4.20
2023-03-12T23:01:42.312Z,3.67
2023-03-12T23:04:12.423Z,3.73
2023-03-12T23:06:40.927Z,3.53
2023-03-12T23:09:09.177Z,3.77
2023-03-12T23:11:37.447Z,3.27
2023-03-12T23:14:05.883Z,3.87
2023-03-12T23:16:34.591Z,4.00
2023-03-12T23:19:03.029Z,3.83
2023-03-12T23:21:32.945Z,4.40
2023-03-12T23:24:01.239Z,3.70
2023-03-12T23:26:30.615Z,3.37
2023-03-12T23:29:00.130Z,3.97
2023-03-12T23:31:29.763Z,3.60
2023-03-12T23:33:58.735Z,4.03
2023-03-12T23:36:27.297Z,3.87
2023-03-12T23:38:57.642Z,3.23
2023-03-12T23:41:27.201Z,3.90
2023-03-12T23:43:55.851Z,4.43
2023-03-12T23:46:24.431Z,3.53
2023-03-12T23:48:53.007Z,4.00
2023-03-12T23:51:23.085Z,3.60
2023-03-12T23:53:53.097Z,3.70
2023-03-12T23:56:24.535Z,4.40
2023-03-12T23:58:53.137Z,3.90
